sensor_id;sensor_type;location;lat;lon;timestamp;temperature;humidity
3202;DHT22;34843;48.744;8.958;2022-10-22T00:00:06;13.10;99.90
3202;DHT22;34843;48.744;8.958;2022-10-22T00:02:32;13.00;99.90
3202;DHT22;34843;48.744;8.958;2022-10-22T00:04:57;13.00;99.90
3202;DHT22;34843;48.744;8.958;2022-10-22T00:07:23;13.00;99.90
3202;DHT22;34843;48.744;8.958;2022-10-22T00:09:48;13.00;99.90
3202;DHT22;34843;48.744;8.958;2022-10-22T00:12:14;13.00;99.90
3202;DHT22;34843;48.744;8.958;2022-10-22T00:14:40;12.90;99.90
3202;DHT22;34843;48.744;8.958;2022-10-22T00:17:05;12.90;99.90
3202;DHT22;34843;48.744;8.958;2022-10-22T00:19:31;13.00;99.90
3202;DHT22;34843;48.744;8.958;2022-10-22T00:21:56;13.00;99.90
3202;DHT22;34843;48.744;8.958;2022-10-22T00:24:22;13.00;99.90
3202;DHT22;34843;48.744;8.958;2022-10-22T00:26:48;13.10;99.90
3202;DHT22;34843;48.744;8.958;2022-10-22T00:29:13;13.10;99.90
3202;DHT22;34843;48.744;8.958;2022-10-22T00:31:39;13.10;99.90
3202;DHT22;34843;48.744;8.958;2022-10-22T00:34:04;13.10;99.90
3202;DHT22;34843;48.744;8.958;2022-10-22T00:36:30;13.20;99.90
3202;DHT22;34843;48.744;8.958;2022-10-22T00:38:55;13.20;99.90
3202;DHT22;34843;48.744;8.958;2022-10-22T00:41:21;13.10;99.90
3202;DHT22;34843;48.744;8.958;2022-10-22T00:43:53;13.10;99.90
3202;DHT22;34843;48.744;8.958;2022-10-22T00:46:19;13.10;99.90
3202;DHT22;34843;48.744;8.958;2022-10-22T00:48:45;13.10;99.90
3202;DHT22;34843;48.744;8.958;2022-10-22T00:51:10;13.10;99.90
3202;DHT22;34843;48.744;8.958;2022-10-22T00:53:37;13.10;99.90
3202;DHT22;34843;48.744;8.958;2022-10-22T00:56:03;13.10;99.90
3202;DHT22;34843;48.744;8.958;2022-10-22T00:58:30;13.10;99.90
3202;DHT22;34843;48.744;8.958;2022-10-22T01:00:57;13.10;99.90
3202;DHT22;34843;48.744;8.958;2022-10-22T01:03:23;13.00;99.90
3202;DHT22;34843;48.744;8.958;2022-10-22T01:05:53;13.00;99.90
3202;DHT22;34843;48.744;8.958;2022-10-22T01:08:24;13.00;99.90
3202;DHT22;34843;48.744;8.958;2022-10-22T01:13:34;13.00;99.90
3202;DHT22;34843;48.744;8.958;2022-10-22T01:16:08;12.90;99.90
3202;DHT22;34843;48.744;8.958;2022-10-22T01:31:03;12.80;99.90
3202;DHT22;34843;48.744;8.958;2022-10-22T01:33:29;12.80;99.90
3202;DHT22;34843;48.744;8.958;2022-10-22T01:35:55;12.80;99.90
3202;DHT22;34843;48.744;8.958;2022-10-22T01:38:21;12.80;99.90
3202;DHT22;34843;48.744;8.958;2022-10-22T01:40:48;12.70;99.90
3202;DHT22;34843;48.744;8.958;2022-10-22T01:43:15;12.70;99.90
3202;DHT22;34843;48.744;8.958;2022-10-22T01:51:00;12.80;99.90
3202;DHT22;34843;48.744;8.958;2022-10-22T01:59:06;13.00;99.90
3202;DHT22;34843;48.744;8.958;2022-10-22T02:01:41;13.00;99.90
3202;DHT22;34843;48.744;8.958;2022-10-22T02:04:14;13.00;99.90
3202;DHT22;34843;48.744;8.958;2022-10-22T02:06:42;13.00;99.90
3202;DHT22;34843;48.744;8.958;2022-10-22T02:09:07;13.00;99.90
3202;DHT22;34843;48.744;8.958;2022-10-22T02:11:34;13.00;99.90
3202;DHT22;34843;48.744;8.958;2022-10-22T02:14:00;13.00;99.90
3202;DHT22;34843;48.744;8.958;2022-10-22T02:16:29;13.10;99.90
3202;DHT22;34843;48.744;8.958;2022-10-22T02:18:56;13.10;99.90
3202;DHT22;34843;48.744;8.958;2022-10-22T02:21:22;13.10;99.90
3202;DHT22;34843;48.744;8.958;2022-10-22T02:23:49;13.10;99.90
3202;DHT22;34843;48.744;8.958;2022-10-22T02:26:28;13.10;99.90
3202;DHT22;34843;48.744;8.958;2022-10-22T02:29:05;13.10;99.90
3202;DHT22;34843;48.744;8.958;2022-10-22T02:31:33;13.10;99.90
3202;DHT22;34843;48.744;8.958;2022-10-22T02:34:02;13.10;99.90
3202;DHT22;34843;48.744;8.958;2022-10-22T02:36:29;13.10;99.90
3202;DHT22;34843;48.744;8.958;2022-10-22T02:38:55;13.10;99.90
3202;DHT22;34843;48.744;8.958;2022-10-22T02:41:20;13.10;99.90
3202;DHT22;34843;48.744;8.958;2022-10-22T02:43:51;13.10;99.90
3202;DHT22;34843;48.744;8.958;2022-10-22T02:46:17;13.10;99.90
3202;DHT22;34843;48.744;8.958;2022-10-22T02:48:43;13.10;99.90
3202;DHT22;34843;48.744;8.958;2022-10-22T02:51:08;13.10;99.90
3202;DHT22;34843;48.744;8.958;2022-10-22T02:53:33;13.10;99.90
3202;DHT22;34843;48.744;8.958;2022-10-22T02:55:59;13.10;99.90
3202;DHT22;34843;48.744;8.958;2022-10-22T02:58:24;13.10;99.90
3202;DHT22;34843;48.744;8.958;2022-10-22T03:00:50;13.00;99.90
3202;DHT22;34843;48.744;8.958;2022-10-22T03:03:15;13.00;99.90
3202;DHT22;34843;48.744;8.958;2022-10-22T03:05:41;13.10;99.90
3202;DHT22;34843;48.744;8.958;2022-10-22T03:08:06;13.10;99.90
3202;DHT22;34843;48.744;8.958;2022-10-22T03:10:32;13.00;99.90
3202;DHT22;34843;48.744;8.958;2022-10-22T03:12:57;13.00;99.90
3202;DHT22;34843;48.744;8.958;2022-10-22T03:15:23;13.10;99.90
3202;DHT22;34843;48.744;8.958;2022-10-22T03:17:48;13.00;99.90
3202;DHT22;34843;48.744;8.958;2022-10-22T03:20:14;13.10;99.90
3202;DHT22;34843;48.744;8.958;2022-10-22T03:22:39;13.00;99.90
3202;DHT22;34843;48.744;8.958;2022-10-22T03:25:07;13.00;99.90
3202;DHT22;34843;48.744;8.958;2022-10-22T03:27:35;13.00;99.90
3202;DHT22;34843;48.744;8.958;2022-10-22T03:30:01;13.00;99.90
3202;DHT22;34843;48.744;8.958;2022-10-22T03:32:26;13.00;99.90
3202;DHT22;34843;48.744;8.958;2022-10-22T03:34:52;12.90;99.90
3202;DHT22;34843;48.744;8.958;2022-10-22T03:37:17;12.80;99.90
3202;DHT22;34843;48.744;8.958;2022-10-22T03:39:43;12.80;99.90
3202;DHT22;34843;48.744;8.958;2022-10-22T03:42:09;12.80;99.90
3202;DHT22;34843;48.744;8.958;2022-10-22T03:44:35;12.80;99.90
3202;DHT22;34843;48.744;8.958;2022-10-22T03:47:01;12.80;99.90
3202;DHT22;34843;48.744;8.958;2022-10-22T03:49:26;12.80;99.90
3202;DHT22;34843;48.744;8.958;2022-10-22T03:51:51;12.90;99.90
3202;DHT22;34843;48.744;8.958;2022-10-22T03:54:17;12.90;99.90
3202;DHT22;34843;48.744;8.958;2022-10-22T03:56:42;12.90;99.90
3202;DHT22;34843;48.744;8.958;2022-10-22T03:59:08;12.90;99.90
3202;DHT22;34843;48.744;8.958;2022-10-22T04:01:33;12.90;99.90
3202;DHT22;34843;48.744;8.958;2022-10-22T04:03:59;12.90;99.90
3202;DHT22;34843;48.744;8.958;2022-10-22T04:06:24;12.80;99.90
3202;DHT22;34843;48.744;8.958;2022-10-22T04:08:50;12.70;99.90
3202;DHT22;34843;48.744;8.958;2022-10-22T04:11:15;12.70;99.90
3202;DHT22;34843;48.744;8.958;2022-10-22T04:13:41;12.70;99.90
3202;DHT22;34843;48.744;8.958;2022-10-22T04:16:14;12.70;99.90
3202;DHT22;34843;48.744;8.958;2022-10-22T04:18:40;12.60;99.90
3202;DHT22;34843;48.744;8.958;2022-10-22T04:21:06;12.60;99.90
3202;DHT22;34843;48.744;8.958;2022-10-22T04:23:32;12.60;99.90
3202;DHT22;34843;48.744;8.958;2022-10-22T04:25:58;12.60;99.90
3202;DHT22;34843;48.744;8.958;2022-10-22T04:28:24;12.60;99.90
3202;DHT22;34843;48.744;8.958;2022-10-22T04:30:49;12.60;99.90
3202;DHT22;34843;48.744;8.958;2022-10-22T04:33:15;12.60;99.90
3202;DHT22;34843;48.744;8.958;2022-10-22T04:35:40;12.60;99.90
3202;DHT22;34843;48.744;8.958;2022-10-22T04:38:06;12.50;99.90
3202;DHT22;34843;48.744;8.958;2022-10-22T04:40:31;12.50;99.90
3202;DHT22;34843;48.744;8.958;2022-10-22T04:42:57;12.40;99.90
3202;DHT22;34843;48.744;8.958;2022-10-22T04:45:22;12.40;99.90
3202;DHT22;34843;48.744;8.958;2022-10-22T04:47:47;12.40;99.90
3202;DHT22;34843;48.744;8.958;2022-10-22T04:50:13;12.50;99.90
3202;DHT22;34843;48.744;8.958;2022-10-22T04:52:38;12.50;99.90
3202;DHT22;34843;48.744;8.958;2022-10-22T04:55:04;12.50;99.90
3202;DHT22;34843;48.744;8.958;2022-10-22T04:57:30;12.50;99.90
3202;DHT22;34843;48.744;8.958;2022-10-22T04:59:55;12.50;99.90
3202;DHT22;34843;48.744;8.958;2022-10-22T05:02:21;12.50;99.90
3202;DHT22;34843;48.744;8.958;2022-10-22T05:04:46;12.60;99.90
3202;DHT22;34843;48.744;8.958;2022-10-22T05:07:12;12.50;99.90
3202;DHT22;34843;48.744;8.958;2022-10-22T05:09:38;12.60;99.90
3202;DHT22;34843;48.744;8.958;2022-10-22T05:12:03;12.60;99.90
3202;DHT22;34843;48.744;8.958;2022-10-22T05:14:30;12.60;99.90
3202;DHT22;34843;48.744;8.958;2022-10-22T05:16:56;12.60;99.90
3202;DHT22;34843;48.744;8.958;2022-10-22T05:19:23;12.60;99.90
3202;DHT22;34843;48.744;8.958;2022-10-22T05:21:49;12.60;99.90
3202;DHT22;34843;48.744;8.958;2022-10-22T05:24:15;12.60;99.90
3202;DHT22;34843;48.744;8.958;2022-10-22T05:26:40;12.60;99.90
3202;DHT22;34843;48.744;8.958;2022-10-22T05:29:06;12.60;99.90
3202;DHT22;34843;48.744;8.958;2022-10-22T05:31:31;12.60;99.90
3202;DHT22;34843;48.744;8.958;2022-10-22T05:33:57;12.50;99.90
3202;DHT22;34843;48.744;8.958;2022-10-22T05:36:22;12.50;99.90
3202;DHT22;34843;48.744;8.958;2022-10-22T05:38:48;12.50;99.90
3202;DHT22;34843;48.744;8.958;2022-10-22T05:41:23;12.40;99.90
3202;DHT22;34843;48.744;8.958;2022-10-22T05:43:49;12.30;99.90
3202;DHT22;34843;48.744;8.958;2022-10-22T05:46:15;12.30;99.90
3202;DHT22;34843;48.744;8.958;2022-10-22T05:48:41;12.20;99.90
3202;DHT22;34843;48.744;8.958;2022-10-22T05:51:09;12.20;99.90
3202;DHT22;34843;48.744;8.958;2022-10-22T05:53:35;12.20;99.90
3202;DHT22;34843;48.744;8.958;2022-10-22T05:56:08;12.10;99.90
3202;DHT22;34843;48.744;8.958;2022-10-22T05:58:33;12.10;99.90
3202;DHT22;34843;48.744;8.958;2022-10-22T06:01:00;12.00;99.90
3202;DHT22;34843;48.744;8.958;2022-10-22T06:03:25;12.00;99.90
3202;DHT22;34843;48.744;8.958;2022-10-22T06:05:50;12.00;99.90
3202;DHT22;34843;48.744;8.958;2022-10-22T06:08:16;12.00;99.90
3202;DHT22;34843;48.744;8.958;2022-10-22T06:10:41;12.00;99.90
3202;DHT22;34843;48.744;8.958;2022-10-22T06:13:07;12.00;99.90
3202;DHT22;34843;48.744;8.958;2022-10-22T06:15:33;12.00;99.90
3202;DHT22;34843;48.744;8.958;2022-10-22T06:17:58;12.00;99.90
3202;DHT22;34843;48.744;8.958;2022-10-22T06:20:24;12.00;99.90
3202;DHT22;34843;48.744;8.958;2022-10-22T06:22:50;12.00;99.90
3202;DHT22;34843;48.744;8.958;2022-10-22T06:25:15;12.10;99.90
3202;DHT22;34843;48.744;8.958;2022-10-22T06:27:41;12.10;99.90
3202;DHT22;34843;48.744;8.958;2022-10-22T06:30:07;12.20;99.90
3202;DHT22;34843;48.744;8.958;2022-10-22T06:32:32;12.20;99.90
3202;DHT22;34843;48.744;8.958;2022-10-22T06:34:58;12.30;99.90
3202;DHT22;34843;48.744;8.958;2022-10-22T06:37:23;12.40;99.90
3202;DHT22;34843;48.744;8.958;2022-10-22T06:39:48;12.40;99.90
3202;DHT22;34843;48.744;8.958;2022-10-22T06:42:14;12.40;99.90
3202;DHT22;34843;48.744;8.958;2022-10-22T06:44:39;12.40;99.90
3202;DHT22;34843;48.744;8.958;2022-10-22T06:47:05;12.50;99.90
3202;DHT22;34843;48.744;8.958;2022-10-22T06:49:30;12.60;99.90
3202;DHT22;34843;48.744;8.958;2022-10-22T06:51:56;12.60;99.90
3202;DHT22;34843;48.744;8.958;2022-10-22T06:54:21;12.70;99.90
3202;DHT22;34843;48.744;8.958;2022-10-22T06:56:47;12.80;99.90
3202;DHT22;34843;48.744;8.958;2022-10-22T06:59:12;12.90;99.90
3202;DHT22;34843;48.744;8.958;2022-10-22T07:01:38;12.90;99.90
3202;DHT22;34843;48.744;8.958;2022-10-22T07:04:04;13.00;99.90
3202;DHT22;34843;48.744;8.958;2022-10-22T07:06:29;13.00;99.90
3202;DHT22;34843;48.744;8.958;2022-10-22T07:08:55;13.10;99.90
3202;DHT22;34843;48.744;8.958;2022-10-22T07:11:22;13.20;99.90
3202;DHT22;34843;48.744;8.958;2022-10-22T07:13:48;13.20;99.90
3202;DHT22;34843;48.744;8.958;2022-10-22T07:16:14;13.30;99.90
3202;DHT22;34843;48.744;8.958;2022-10-22T07:18:40;13.40;99.90
3202;DHT22;34843;48.744;8.958;2022-10-22T07:21:06;13.40;99.90
3202;DHT22;34843;48.744;8.958;2022-10-22T07:23:32;13.50;99.90
3202;DHT22;34843;48.744;8.958;2022-10-22T07:25:57;13.60;99.90
3202;DHT22;34843;48.744;8.958;2022-10-22T07:28:23;13.80;99.90
3202;DHT22;34843;48.744;8.958;2022-10-22T07:30:49;13.80;99.90
3202;DHT22;34843;48.744;8.958;2022-10-22T07:33:14;13.90;99.90
3202;DHT22;34843;48.744;8.958;2022-10-22T07:35:40;14.00;99.90
3202;DHT22;34843;48.744;8.958;2022-10-22T07:38:06;14.10;99.90
3202;DHT22;34843;48.744;8.958;2022-10-22T07:40:32;14.20;99.90
3202;DHT22;34843;48.744;8.958;2022-10-22T07:42:57;14.30;99.90
3202;DHT22;34843;48.744;8.958;2022-10-22T07:45:23;14.40;99.90
3202;DHT22;34843;48.744;8.958;2022-10-22T07:47:48;14.40;99.90
3202;DHT22;34843;48.744;8.958;2022-10-22T07:50:14;14.50;99.90
3202;DHT22;34843;48.744;8.958;2022-10-22T07:52:40;14.60;99.90
3202;DHT22;34843;48.744;8.958;2022-10-22T07:55:05;14.70;99.90
3202;DHT22;34843;48.744;8.958;2022-10-22T07:57:31;14.80;99.90
3202;DHT22;34843;48.744;8.958;2022-10-22T07:59:56;14.90;99.90
3202;DHT22;34843;48.744;8.958;2022-10-22T08:02:23;14.90;99.90
3202;DHT22;34843;48.744;8.958;2022-10-22T08:04:48;14.90;99.90
3202;DHT22;34843;48.744;8.958;2022-10-22T08:07:14;15.00;99.90
3202;DHT22;34843;48.744;8.958;2022-10-22T08:09:39;15.10;99.90
3202;DHT22;34843;48.744;8.958;2022-10-22T08:12:05;15.10;99.90
3202;DHT22;34843;48.744;8.958;2022-10-22T08:14:31;15.10;99.90
3202;DHT22;34843;48.744;8.958;2022-10-22T08:16:56;15.10;99.90
3202;DHT22;34843;48.744;8.958;2022-10-22T08:19:22;15.10;99.90
3202;DHT22;34843;48.744;8.958;2022-10-22T08:21:47;15.10;99.90
3202;DHT22;34843;48.744;8.958;2022-10-22T08:24:13;15.10;99.90
3202;DHT22;34843;48.744;8.958;2022-10-22T08:26:39;15.10;99.90
3202;DHT22;34843;48.744;8.958;2022-10-22T08:29:05;15.20;99.90
3202;DHT22;34843;48.744;8.958;2022-10-22T08:31:30;15.20;99.90
3202;DHT22;34843;48.744;8.958;2022-10-22T08:33:56;15.20;99.90
3202;DHT22;34843;48.744;8.958;2022-10-22T08:36:21;15.20;99.90
3202;DHT22;34843;48.744;8.958;2022-10-22T08:38:47;15.10;99.90
3202;DHT22;34843;48.744;8.958;2022-10-22T08:41:13;15.00;99.90
3202;DHT22;34843;48.744;8.958;2022-10-22T08:46:14;14.90;99.90
3202;DHT22;34843;48.744;8.958;2022-10-22T08:48:45;14.90;99.90
3202;DHT22;34843;48.744;8.958;2022-10-22T08:51:14;14.90;99.90
3202;DHT22;34843;48.744;8.958;2022-10-22T08:53:42;15.00;99.90
3202;DHT22;34843;48.744;8.958;2022-10-22T08:56:09;15.00;99.90
3202;DHT22;34843;48.744;8.958;2022-10-22T08:58:37;15.10;99.90
3202;DHT22;34843;48.744;8.958;2022-10-22T09:01:05;15.20;99.90
3202;DHT22;34843;48.744;8.958;2022-10-22T09:03:40;15.30;99.90
3202;DHT22;34843;48.744;8.958;2022-10-22T09:06:11;15.40;99.90
3202;DHT22;34843;48.744;8.958;2022-10-22T09:08:38;15.60;99.90
3202;DHT22;34843;48.744;8.958;2022-10-22T09:13:35;15.80;99.90
3202;DHT22;34843;48.744;8.958;2022-10-22T09:16:15;16.00;99.90
3202;DHT22;34843;48.744;8.958;2022-10-22T09:21:33;16.20;99.90
3202;DHT22;34843;48.744;8.958;2022-10-22T09:26:32;16.50;99.90
3202;DHT22;34843;48.744;8.958;2022-10-22T09:28:59;16.50;99.90
3202;DHT22;34843;48.744;8.958;2022-10-22T09:31:25;16.60;99.90
3202;DHT22;34843;48.744;8.958;2022-10-22T09:33:51;16.60;99.90
3202;DHT22;34843;48.744;8.958;2022-10-22T09:36:17;16.70;99.90
3202;DHT22;34843;48.744;8.958;2022-10-22T09:38:47;16.80;99.90
3202;DHT22;34843;48.744;8.958;2022-10-22T09:41:13;16.90;99.90
3202;DHT22;34843;48.744;8.958;2022-10-22T09:43:39;17.00;99.90
3202;DHT22;34843;48.744;8.958;2022-10-22T09:46:05;17.00;99.90
3202;DHT22;34843;48.744;8.958;2022-10-22T09:53:37;17.00;99.90
3202;DHT22;34843;48.744;8.958;2022-10-22T09:56:08;17.00;99.90
3202;DHT22;34843;48.744;8.958;2022-10-22T09:58:41;17.00;99.90
3202;DHT22;34843;48.744;8.958;2022-10-22T10:01:06;17.00;99.90
3202;DHT22;34843;48.744;8.958;2022-10-22T10:03:32;17.10;99.90
3202;DHT22;34843;48.744;8.958;2022-10-22T10:05:58;17.10;99.90
3202;DHT22;34843;48.744;8.958;2022-10-22T10:08:24;17.20;99.90
3202;DHT22;34843;48.744;8.958;2022-10-22T10:10:53;17.30;99.90
3202;DHT22;34843;48.744;8.958;2022-10-22T10:18:56;17.40;99.90
3202;DHT22;34843;48.744;8.958;2022-10-22T10:24:23;17.50;99.90
3202;DHT22;34843;48.744;8.958;2022-10-22T10:26:53;17.50;99.90
3202;DHT22;34843;48.744;8.958;2022-10-22T10:29:26;17.60;99.90
3202;DHT22;34843;48.744;8.958;2022-10-22T10:35:00;17.60;99.90
3202;DHT22;34843;48.744;8.958;2022-10-22T10:37:27;17.60;99.90
3202;DHT22;34843;48.744;8.958;2022-10-22T10:47:24;17.70;99.90
3202;DHT22;34843;48.744;8.958;2022-10-22T10:49:55;17.80;99.90
3202;DHT22;34843;48.744;8.958;2022-10-22T10:52:36;17.80;99.90
3202;DHT22;34843;48.744;8.958;2022-10-22T10:55:18;17.90;99.90
3202;DHT22;34843;48.744;8.958;2022-10-22T10:57:54;18.00;99.90
3202;DHT22;34843;48.744;8.958;2022-10-22T11:00:21;18.10;99.90
3202;DHT22;34843;48.744;8.958;2022-10-22T11:02:51;18.10;99.90
3202;DHT22;34843;48.744;8.958;2022-10-22T11:08:06;18.20;99.90
3202;DHT22;34843;48.744;8.958;2022-10-22T11:10:36;18.30;99.90
3202;DHT22;34843;48.744;8.958;2022-10-22T11:18:33;18.50;99.90
3202;DHT22;34843;48.744;8.958;2022-10-22T11:23:39;18.60;99.90
3202;DHT22;34843;48.744;8.958;2022-10-22T11:26:05;18.60;99.90
3202;DHT22;34843;48.744;8.958;2022-10-22T11:28:43;18.50;99.90
3202;DHT22;34843;48.744;8.958;2022-10-22T11:31:14;18.50;99.90
3202;DHT22;34843;48.744;8.958;2022-10-22T11:33:51;18.50;99.90
3202;DHT22;34843;48.744;8.958;2022-10-22T11:36:18;18.40;99.90
3202;DHT22;34843;48.744;8.958;2022-10-22T11:38:45;18.40;99.90
3202;DHT22;34843;48.744;8.958;2022-10-22T11:41:12;18.30;99.90
3202;DHT22;34843;48.744;8.958;2022-10-22T11:43:57;18.40;99.90
3202;DHT22;34843;48.744;8.958;2022-10-22T11:46:25;18.40;99.90
3202;DHT22;34843;48.744;8.958;2022-10-22T11:49:40;18.40;99.90
3202;DHT22;34843;48.744;8.958;2022-10-22T11:51:40;18.40;99.90
3202;DHT22;34843;48.744;8.958;2022-10-22T11:56:51;18.50;99.90
3202;DHT22;34843;48.744;8.958;2022-10-22T12:08:05;19.20;99.90
3202;DHT22;34843;48.744;8.958;2022-10-22T12:11:00;19.30;99.90
3202;DHT22;34843;48.744;8.958;2022-10-22T12:13:27;19.40;99.90
3202;DHT22;34843;48.744;8.958;2022-10-22T12:15:55;19.50;99.90
3202;DHT22;34843;48.744;8.958;2022-10-22T12:18:26;19.50;99.90
3202;DHT22;34843;48.744;8.958;2022-10-22T12:20:52;19.40;99.90
3202;DHT22;34843;48.744;8.958;2022-10-22T12:23:18;19.40;99.90
3202;DHT22;34843;48.744;8.958;2022-10-22T12:25:45;19.30;99.90
3202;DHT22;34843;48.744;8.958;2022-10-22T12:28:11;19.30;99.90
3202;DHT22;34843;48.744;8.958;2022-10-22T12:30:36;19.20;99.90
3202;DHT22;34843;48.744;8.958;2022-10-22T12:33:03;19.10;99.90
3202;DHT22;34843;48.744;8.958;2022-10-22T12:35:30;19.00;99.90
3202;DHT22;34843;48.744;8.958;2022-10-22T12:37:57;19.00;99.90
3202;DHT22;34843;48.744;8.958;2022-10-22T12:40:24;19.00;99.90
3202;DHT22;34843;48.744;8.958;2022-10-22T12:42:51;18.90;99.90
3202;DHT22;34843;48.744;8.958;2022-10-22T12:45:17;18.90;99.90
3202;DHT22;34843;48.744;8.958;2022-10-22T12:47:46;19.10;99.90
3202;DHT22;34843;48.744;8.958;2022-10-22T12:50:18;19.20;99.90
3202;DHT22;34843;48.744;8.958;2022-10-22T12:52:44;19.30;99.90
3202;DHT22;34843;48.744;8.958;2022-10-22T12:55:17;19.30;99.90
3202;DHT22;34843;48.744;8.958;2022-10-22T12:57:45;19.50;99.90
3202;DHT22;34843;48.744;8.958;2022-10-22T13:02:46;19.50;99.90
3202;DHT22;34843;48.744;8.958;2022-10-22T13:07:46;19.50;99.90
3202;DHT22;34843;48.744;8.958;2022-10-22T13:10:48;19.50;99.90
3202;DHT22;34843;48.744;8.958;2022-10-22T13:13:03;19.50;99.90
3202;DHT22;34843;48.744;8.958;2022-10-22T13:20:28;19.30;99.90
3202;DHT22;34843;48.744;8.958;2022-10-22T13:22:57;19.20;99.90
3202;DHT22;34843;48.744;8.958;2022-10-22T13:25:26;19.20;99.90
3202;DHT22;34843;48.744;8.958;2022-10-22T13:32:49;19.00;99.90
3202;DHT22;34843;48.744;8.958;2022-10-22T13:35:16;19.00;99.90
3202;DHT22;34843;48.744;8.958;2022-10-22T13:37:42;19.00;99.90
3202;DHT22;34843;48.744;8.958;2022-10-22T13:40:11;19.00;99.90
3202;DHT22;34843;48.744;8.958;2022-10-22T13:42:37;19.10;99.90
3202;DHT22;34843;48.744;8.958;2022-10-22T13:45:04;19.10;99.90
3202;DHT22;34843;48.744;8.958;2022-10-22T13:47:29;19.10;99.90
3202;DHT22;34843;48.744;8.958;2022-10-22T13:49:55;19.10;99.90
3202;DHT22;34843;48.744;8.958;2022-10-22T13:53:08;19.10;99.90
3202;DHT22;34843;48.744;8.958;2022-10-22T13:55:13;19.20;99.90
3202;DHT22;34843;48.744;8.958;2022-10-22T13:57:39;19.20;99.90
3202;DHT22;34843;48.744;8.958;2022-10-22T14:00:04;19.20;99.90
3202;DHT22;34843;48.744;8.958;2022-10-22T14:02:30;19.20;99.90
3202;DHT22;34843;48.744;8.958;2022-10-22T14:04:55;19.10;99.90
3202;DHT22;34843;48.744;8.958;2022-10-22T14:07:21;19.10;99.90
3202;DHT22;34843;48.744;8.958;2022-10-22T14:09:46;19.10;99.90
3202;DHT22;34843;48.744;8.958;2022-10-22T14:12:13;19.10;99.90
3202;DHT22;34843;48.744;8.958;2022-10-22T14:14:39;19.20;99.90
3202;DHT22;34843;48.744;8.958;2022-10-22T14:17:05;19.30;99.90
3202;DHT22;34843;48.744;8.958;2022-10-22T14:19:30;19.40;99.90
3202;DHT22;34843;48.744;8.958;2022-10-22T14:21:56;19.60;99.90
3202;DHT22;34843;48.744;8.958;2022-10-22T14:24:21;19.70;99.90
3202;DHT22;34843;48.744;8.958;2022-10-22T14:26:47;19.80;99.90
3202;DHT22;34843;48.744;8.958;2022-10-22T14:29:12;19.80;99.90
3202;DHT22;34843;48.744;8.958;2022-10-22T14:31:38;19.80;99.90
3202;DHT22;34843;48.744;8.958;2022-10-22T14:34:04;19.80;99.90
3202;DHT22;34843;48.744;8.958;2022-10-22T14:36:29;19.80;99.90
3202;DHT22;34843;48.744;8.958;2022-10-22T14:38:55;19.70;99.90
3202;DHT22;34843;48.744;8.958;2022-10-22T14:41:24;19.60;99.90
3202;DHT22;34843;48.744;8.958;2022-10-22T14:43:50;19.60;99.90
3202;DHT22;34843;48.744;8.958;2022-10-22T14:46:16;19.60;99.90
3202;DHT22;34843;48.744;8.958;2022-10-22T14:48:42;19.50;99.90
3202;DHT22;34843;48.744;8.958;2022-10-22T14:51:11;19.50;99.90
3202;DHT22;34843;48.744;8.958;2022-10-22T14:53:37;19.40;99.90
3202;DHT22;34843;48.744;8.958;2022-10-22T14:56:02;19.40;99.90
3202;DHT22;34843;48.744;8.958;2022-10-22T14:58:28;19.30;99.90
3202;DHT22;34843;48.744;8.958;2022-10-22T15:00:53;19.20;99.90
3202;DHT22;34843;48.744;8.958;2022-10-22T15:03:19;19.20;99.90
3202;DHT22;34843;48.744;8.958;2022-10-22T15:05:44;19.10;99.90
3202;DHT22;34843;48.744;8.958;2022-10-22T15:08:10;19.10;99.90
3202;DHT22;34843;48.744;8.958;2022-10-22T15:10:36;19.00;99.90
3202;DHT22;34843;48.744;8.958;2022-10-22T15:13:02;19.00;99.90
3202;DHT22;34843;48.744;8.958;2022-10-22T15:15:27;18.90;99.90
3202;DHT22;34843;48.744;8.958;2022-10-22T15:17:53;18.90;99.90
3202;DHT22;34843;48.744;8.958;2022-10-22T15:20:18;18.80;99.90
3202;DHT22;34843;48.744;8.958;2022-10-22T15:22:44;18.70;99.90
3202;DHT22;34843;48.744;8.958;2022-10-22T15:25:09;18.70;99.90
3202;DHT22;34843;48.744;8.958;2022-10-22T15:27:35;18.60;99.90
3202;DHT22;34843;48.744;8.958;2022-10-22T15:30:00;18.60;99.90
3202;DHT22;34843;48.744;8.958;2022-10-22T15:32:26;18.50;99.90
3202;DHT22;34843;48.744;8.958;2022-10-22T15:34:53;18.50;99.90
3202;DHT22;34843;48.744;8.958;2022-10-22T15:37:19;18.40;99.90
3202;DHT22;34843;48.744;8.958;2022-10-22T15:39:44;18.40;99.90
3202;DHT22;34843;48.744;8.958;2022-10-22T15:42:10;18.30;99.90
3202;DHT22;34843;48.744;8.958;2022-10-22T15:44:35;18.20;99.90
3202;DHT22;34843;48.744;8.958;2022-10-22T15:47:02;18.10;99.90
3202;DHT22;34843;48.744;8.958;2022-10-22T15:49:27;18.00;99.90
3202;DHT22;34843;48.744;8.958;2022-10-22T15:51:53;17.90;99.90
3202;DHT22;34843;48.744;8.958;2022-10-22T15:54:20;17.90;99.90
3202;DHT22;34843;48.744;8.958;2022-10-22T15:56:45;17.70;99.90
3202;DHT22;34843;48.744;8.958;2022-10-22T15:59:11;17.60;99.90
3202;DHT22;34843;48.744;8.958;2022-10-22T16:01:37;17.50;99.90
3202;DHT22;34843;48.744;8.958;2022-10-22T16:04:03;17.40;99.90
3202;DHT22;34843;48.744;8.958;2022-10-22T16:06:29;17.20;99.90
3202;DHT22;34843;48.744;8.958;2022-10-22T16:08:56;17.10;99.90
3202;DHT22;34843;48.744;8.958;2022-10-22T16:11:21;17.00;99.90
3202;DHT22;34843;48.744;8.958;2022-10-22T16:13:47;16.80;99.90
3202;DHT22;34843;48.744;8.958;2022-10-22T16:16:12;16.70;99.90
3202;DHT22;34843;48.744;8.958;2022-10-22T16:18:38;16.50;99.90
3202;DHT22;34843;48.744;8.958;2022-10-22T16:21:03;16.40;99.90
3202;DHT22;34843;48.744;8.958;2022-10-22T16:23:29;16.30;99.90
3202;DHT22;34843;48.744;8.958;2022-10-22T16:25:54;16.20;99.90
3202;DHT22;34843;48.744;8.958;2022-10-22T16:28:19;16.10;99.90
3202;DHT22;34843;48.744;8.958;2022-10-22T16:30:45;15.90;99.90
3202;DHT22;34843;48.744;8.958;2022-10-22T16:33:10;15.90;99.90
3202;DHT22;34843;48.744;8.958;2022-10-22T16:35:39;15.70;99.90
3202;DHT22;34843;48.744;8.958;2022-10-22T16:38:05;15.60;99.90
3202;DHT22;34843;48.744;8.958;2022-10-22T16:40:31;15.50;99.90
3202;DHT22;34843;48.744;8.958;2022-10-22T16:42:56;15.40;99.90
3202;DHT22;34843;48.744;8.958;2022-10-22T16:45:22;15.20;99.90
3202;DHT22;34843;48.744;8.958;2022-10-22T16:47:47;15.10;99.90
3202;DHT22;34843;48.744;8.958;2022-10-22T16:50:13;14.90;99.90
3202;DHT22;34843;48.744;8.958;2022-10-22T16:52:38;14.80;99.90
3202;DHT22;34843;48.744;8.958;2022-10-22T16:55:04;14.60;99.90
3202;DHT22;34843;48.744;8.958;2022-10-22T16:57:29;14.50;99.90
3202;DHT22;34843;48.744;8.958;2022-10-22T16:59:56;14.30;99.90
3202;DHT22;34843;48.744;8.958;2022-10-22T17:02:21;14.30;99.90
3202;DHT22;34843;48.744;8.958;2022-10-22T17:04:47;14.20;99.90
3202;DHT22;34843;48.744;8.958;2022-10-22T17:07:12;14.10;99.90
3202;DHT22;34843;48.744;8.958;2022-10-22T17:09:38;14.00;99.90
3202;DHT22;34843;48.744;8.958;2022-10-22T17:12:03;14.00;99.90
3202;DHT22;34843;48.744;8.958;2022-10-22T17:14:29;13.90;99.90
3202;DHT22;34843;48.744;8.958;2022-10-22T17:16:54;13.90;99.90
3202;DHT22;34843;48.744;8.958;2022-10-22T17:19:20;13.90;99.90